Time;durP1;ratioP1;P1;durP2;ratioP2;P2;SDS_P1;SDS_P2;PMS_P1;PMS_P2;Temp;Humidity;BMP_temperature;BMP_pressure;BME280_temperature;BME280_humidity;BME280_pressure;Samples;Min_cycle;Max_cycle;Signal;HPM_P1;HPM_P2
2023/10/21 00:01:51;;;;;;;21.02;12.55;;;11.10;99.90;;;;;;5059052;28;20056;-47
2023/10/21 00:04:16;;;;;;;21.60;12.80;;;11.00;99.90;;;;;;5058020;28;20048;-47
2023/10/21 00:06:42;;;;;;;29.73;13.15;;;11.10;99.90;;;;;;5059110;28;20445;-47
2023/10/21 00:09:07;;;;;;;21.13;12.60;;;11.00;99.90;;;;;;5057865;28;20047;-50
2023/10/21 00:11:33;;;;;;;18.85;12.18;;;10.90;99.90;;;;;;5057087;28;20044;-47
2023/10/21 00:13:59;;;;;;;23.75;13.18;;;11.10;99.90;;;;;;5041067;28;20128;-49
2023/10/21 00:16:24;;;;;;;19.35;12.60;;;11.10;99.90;;;;;;5061007;28;20501;-48
2023/10/21 00:18:50;;;;;;;21.25;13.23;;;11.10;99.90;;;;;;5065430;28;20044;-47
2023/10/21 00:21:16;;;;;;;19.45;12.98;;;10.80;99.90;;;;;;5063178;28;20442;-47
2023/10/21 00:23:41;;;;;;;22.20;12.38;;;10.80;99.90;;;;;;5068134;28;20041;-48
2023/10/21 00:26:07;;;;;;;23.83;12.88;;;10.70;99.90;;;;;;5065539;28;20037;-47
2023/10/21 00:28:33;;;;;;;22.25;12.48;;;10.70;99.90;;;;;;5057409;28;20043;-47
2023/10/21 00:31:04;;;;;;;23.55;12.48;;;10.70;99.90;;;;;;5057816;28;20477;-47
2023/10/21 00:33:29;;;;;;;22.27;12.43;;;10.70;99.90;;;;;;5057868;28;20127;-47
2023/10/21 00:35:55;;;;;;;22.83;12.43;;;10.70;99.90;;;;;;5057364;28;20139;-49
2023/10/21 00:38:20;;;;;;;23.20;12.55;;;10.60;99.90;;;;;;5058391;28;20043;-47
2023/10/21 00:40:55;;;;;;;21.85;12.07;;;10.60;99.90;;;;;;5059265;28;20032;-48
2023/10/21 00:43:34;;;;;;;29.17;12.50;;;10.50;99.90;;;;;;5058206;28;20082;-47
2023/10/21 00:46:20;;;;;;;22.50;11.48;;;10.30;99.90;;;;;;5058544;28;20052;-47
2023/10/21 00:48:46;;;;;;;19.85;11.43;;;10.40;99.90;;;;;;5056431;28;20041;-46
2023/10/21 00:51:13;;;;;;;17.63;11.60;;;10.40;99.90;;;;;;5059605;28;20036;-47
2023/10/21 00:53:39;;;;;;;19.48;12.00;;;10.30;99.90;;;;;;5056272;28;20052;-47
2023/10/21 00:56:08;;;;;;;23.75;12.10;;;10.30;99.90;;;;;;5057240;28;20498;-49
2023/10/21 00:58:34;;;;;;;22.00;11.52;;;10.30;99.90;;;;;;5057480;28;20515;-48
2023/10/21 01:01:06;;;;;;;21.50;12.23;;;10.30;99.90;;;;;;5059998;28;20036;-47
2023/10/21 01:03:33;;;;;;;18.35;10.75;;;10.40;99.90;;;;;;5056542;28;20411;-48
2023/10/21 01:05:59;;;;;;;19.00;11.25;;;10.20;99.90;;;;;;5055211;28;20511;-47
2023/10/21 01:08:24;;;;;;;19.65;11.45;;;10.30;99.90;;;;;;5059027;28;20045;-47
2023/10/21 01:10:50;;;;;;;18.98;10.50;;;10.30;99.90;;;;;;5060744;28;20368;-47
2023/10/21 01:13:16;;;;;;;18.10;10.68;;;10.30;99.90;;;;;;5062223;28;20044;-47
2023/10/21 01:15:42;;;;;;;20.73;11.45;;;10.30;99.90;;;;;;5059689;28;20056;-46
2023/10/21 01:18:08;;;;;;;25.63;10.98;;;10.30;99.90;;;;;;5063559;28;20615;-47
2023/10/21 01:20:35;;;;;;;20.08;11.90;;;10.20;99.90;;;;;;5059439;28;20119;-50
2023/10/21 01:23:01;;;;;;;21.48;11.57;;;10.30;99.90;;;;;;5057139;28;20548;-47
2023/10/21 01:25:27;;;;;;;16.33;10.85;;;10.30;99.90;;;;;;5061317;28;20040;-46
2023/10/21 01:27:55;;;;;;;17.42;10.55;;;10.30;99.90;;;;;;5062387;28;20466;-48
2023/10/21 01:30:22;;;;;;;16.92;10.27;;;10.20;99.90;;;;;;5067687;28;20047;-47
2023/10/21 01:32:48;;;;;;;18.13;10.20;;;10.30;99.90;;;;;;5061921;28;20032;-47
2023/10/21 01:35:14;;;;;;;17.77;10.00;;;10.30;99.90;;;;;;5060398;28;20172;-48
2023/10/21 01:37:40;;;;;;;15.98;9.55;;;10.20;99.90;;;;;;5059747;28;20087;-48
2023/10/21 01:40:06;;;;;;;17.45;10.32;;;10.20;99.90;;;;;;5061017;28;20036;-47
2023/10/21 01:42:34;;;;;;;24.67;10.35;;;10.20;99.90;;;;;;5061998;28;20047;-47
2023/10/21 01:44:59;;;;;;;14.70;9.38;;;10.20;99.90;;;;;;5059340;28;20048;-47
2023/10/21 01:47:26;;;;;;;13.88;10.05;;;10.10;99.90;;;;;;5060069;28;20045;-50
2023/10/21 01:49:53;;;;;;;19.80;10.07;;;10.00;99.90;;;;;;5059116;28;20040;-48
2023/10/21 01:52:19;;;;;;;21.40;10.75;;;10.10;99.90;;;;;;5061942;28;20135;-46
2023/10/21 01:54:44;;;;;;;16.77;10.23;;;10.20;99.90;;;;;;5058956;28;20602;-47
2023/10/21 01:57:10;;;;;;;23.25;10.55;;;10.20;99.90;;;;;;5061028;28;20113;-51
2023/10/21 01:59:40;;;;;;;19.95;10.30;;;10.20;99.90;;;;;;5065910;28;20044;-46
2023/10/21 02:02:05;;;;;;;17.88;11.20;;;10.30;99.90;;;;;;5057409;28;20725;-47
2023/10/21 02:04:31;;;;;;;22.98;11.05;;;10.20;99.90;;;;;;5059695;28;20040;-49
2023/10/21 02:06:56;;;;;;;22.25;11.30;;;10.20;99.90;;;;;;5063771;28;20099;-47
2023/10/21 02:09:22;;;;;;;20.30;11.35;;;10.10;99.90;;;;;;5062361;28;20394;-47
2023/10/21 02:11:48;;;;;;;19.95;10.77;;;10.10;99.90;;;;;;5059798;28;20181;-47
2023/10/21 02:14:13;;;;;;;20.77;11.60;;;10.20;99.90;;;;;;5060551;28;20036;-47
2023/10/21 02:16:39;;;;;;;22.33;12.15;;;10.10;99.90;;;;;;5060290;28;20045;-50
2023/10/21 02:19:05;;;;;;;22.67;12.63;;;10.10;99.90;;;;;;5058387;28;20512;-50
2023/10/21 02:21:30;;;;;;;23.60;13.07;;;10.10;99.90;;;;;;5063410;28;20125;-47
2023/10/21 02:23:56;;;;;;;25.77;13.50;;;10.20;99.90;;;;;;5068949;28;20060;-47
2023/10/21 02:26:21;;;;;;;23.25;13.80;;;10.20;99.90;;;;;;5067965;28;20037;-47
2023/10/21 02:28:47;;;;;;;27.13;13.73;;;10.20;99.90;;;;;;5065251;28;20043;-46
2023/10/21 02:31:13;;;;;;;24.48;15.20;;;10.20;99.90;;;;;;5061454;28;20446;-47
2023/10/21 02:33:39;;;;;;;25.02;14.48;;;10.20;99.90;;;;;;5059191;28;20548;-47
2023/10/21 02:36:05;;;;;;;29.33;15.30;;;10.20;99.90;;;;;;5059137;28;20067;-47
2023/10/21 02:38:31;;;;;;;25.50;15.45;;;10.40;99.90;;;;;;5058991;28;20123;-47
2023/10/21 02:40:56;;;;;;;31.60;15.90;;;10.40;99.90;;;;;;5061816;28;20036;-46
2023/10/21 02:43:22;;;;;;;31.15;15.75;;;10.30;99.90;;;;;;5058527;28;20069;-50
2023/10/21 02:45:48;;;;;;;26.85;16.35;;;10.40;99.90;;;;;;5059064;28;20102;-50
2023/10/21 02:48:14;;;;;;;40.33;17.98;;;10.50;99.90;;;;;;5058166;28;20095;-47
2023/10/21 02:50:40;;;;;;;31.13;17.77;;;10.30;99.90;;;;;;5059274;28;20098;-47
2023/10/21 02:53:06;;;;;;;33.50;17.85;;;10.30;99.90;;;;;;5060325;28;20028;-47
2023/10/21 02:55:31;;;;;;;33.17;18.08;;;10.30;99.90;;;;;;5058228;28;20037;-48
2023/10/21 02:57:57;;;;;;;29.55;17.50;;;10.40;99.90;;;;;;5058391;28;20048;-47
2023/10/21 03:00:23;;;;;;;35.30;17.65;;;10.40;99.90;;;;;;5060621;28;20431;-49
2023/10/21 03:02:48;;;;;;;31.58;17.73;;;10.30;99.90;;;;;;5060595;28;20114;-50
2023/10/21 03:05:18;;;;;;;31.85;17.52;;;10.40;99.90;;;;;;5060436;28;20086;-49
2023/10/21 03:07:43;;;;;;;32.50;17.70;;;10.40;99.90;;;;;;5060533;28;20044;-47
2023/10/21 03:10:12;;;;;;;29.52;17.05;;;10.40;99.90;;;;;;5058498;28;20037;-47
2023/10/21 03:12:38;;;;;;;32.63;17.27;;;10.20;99.90;;;;;;5057460;28;20074;-46
2023/10/21 03:15:06;;;;;;;34.35;17.52;;;10.30;99.90;;;;;;5058085;28;20127;-45
2023/10/21 03:17:32;;;;;;;;;;;10.30;99.90;;;;;;5060445;28;20045;-49
2023/10/21 03:19:58;;;;;;;29.30;15.85;;;10.30;99.90;;;;;;5057312;28;20327;-46
2023/10/21 03:22:25;;;;;;;34.00;15.90;;;10.30;99.90;;;;;;5058983;28;20098;-47
2023/10/21 03:24:51;;;;;;;29.85;16.63;;;10.30;99.90;;;;;;5063160;28;20116;-49
2023/10/21 03:27:16;;;;;;;32.25;16.30;;;10.40;99.90;;;;;;5062195;28;20123;-47
2023/10/21 03:29:42;;;;;;;28.08;14.95;;;10.20;99.90;;;;;;5057355;28;20043;-48
2023/10/21 03:32:09;;;;;;;21.38;14.60;;;10.20;99.90;;;;;;5057870;28;20040;-48
2023/10/21 03:34:35;;;;;;;24.98;14.95;;;10.30;99.90;;;;;;5057042;28;20447;-48
2023/10/21 03:37:01;;;;;;;22.40;14.25;;;10.30;99.90;;;;;;5059451;28;20044;-50
2023/10/21 03:39:26;;;;;;;23.05;13.75;;;10.20;99.90;;;;;;5058730;28;20028;-49
2023/10/21 03:41:53;;;;;;;25.35;15.20;;;10.10;99.90;;;;;;5059938;28;20119;-46
2023/10/21 03:44:18;;;;;;;25.38;13.85;;;10.30;99.90;;;;;;5060320;28;20051;-48
2023/10/21 03:46:45;;;;;;;25.38;14.95;;;10.20;99.90;;;;;;5059241;28;20440;-49
2023/10/21 03:49:10;;;;;;;24.13;14.18;;;10.10;99.90;;;;;;5058497;28;20064;-46
2023/10/21 03:51:36;;;;;;;22.80;13.93;;;10.10;99.90;;;;;;5058071;28;20033;-46
2023/10/21 03:54:02;;;;;;;25.40;13.93;;;10.10;99.90;;;;;;5057975;28;20032;-48
2023/10/21 03:56:28;;;;;;;23.77;14.32;;;10.00;99.90;;;;;;5057640;28;20032;-46
2023/10/21 03:58:53;;;;;;;25.33;13.55;;;10.00;99.90;;;;;;5056136;28;20490;-50
2023/10/21 04:01:22;;;;;;;33.25;14.75;;;10.00;99.90;;;;;;5058400;28;20137;-49
2023/10/21 04:03:47;;;;;;;22.77;14.32;;;10.00;99.90;;;;;;5056844;28;20036;-47
2023/10/21 04:06:17;;;;;;;27.98;14.73;;;9.90;99.90;;;;;;5058942;28;20044;-48
2023/10/21 04:08:43;;;;;;;24.88;13.68;;;9.90;99.90;;;;;;5058830;28;20048;-47
2023/10/21 04:11:08;;;;;;;27.40;15.23;;;9.80;99.90;;;;;;5059031;28;20043;-50
2023/10/21 04:13:34;;;;;;;25.85;14.98;;;9.80;99.90;;;;;;5058022;28;20094;-50
2023/10/21 04:16:00;;;;;;;27.10;15.00;;;9.90;99.90;;;;;;5061661;28;20632;-47
2023/10/21 04:18:26;;;;;;;26.77;15.68;;;9.80;99.90;;;;;;5061588;28;20032;-47
2023/10/21 04:20:52;;;;;;;26.02;15.70;;;9.90;99.90;;;;;;5056659;28;20073;-47
2023/10/21 04:23:17;;;;;;;31.92;15.95;;;9.80;99.90;;;;;;5052115;28;20470;-48
2023/10/21 04:25:43;;;;;;;29.60;15.57;;;9.80;99.90;;;;;;5055150;28;20041;-48
2023/10/21 04:28:09;;;;;;;24.63;16.42;;;9.90;99.90;;;;;;5056270;28;20033;-47
2023/10/21 04:30:35;;;;;;;33.88;17.63;;;9.80;99.90;;;;;;5054434;28;20514;-47
2023/10/21 04:33:01;;;;;;;35.17;18.23;;;9.90;99.90;;;;;;5057261;28;20073;-50
2023/10/21 04:35:28;;;;;;;30.45;17.27;;;9.90;99.90;;;;;;5054966;28;20513;-49
2023/10/21 04:37:54;;;;;;;27.13;16.58;;;9.90;99.90;;;;;;5055408;28;20056;-47
2023/10/21 04:40:20;;;;;;;27.73;16.80;;;10.00;99.90;;;;;;5058504;28;20043;-50
2023/10/21 04:42:45;;;;;;;28.38;16.70;;;10.00;99.90;;;;;;5056732;28;20378;-51
2023/10/21 04:45:11;;;;;;;27.10;17.02;;;10.10;99.90;;;;;;5058206;28;20040;-49
2023/10/21 04:47:37;;;;;;;30.70;17.27;;;10.10;99.90;;;;;;5056539;28;20049;-50
2023/10/21 04:50:04;;;;;;;34.45;17.25;;;10.10;99.90;;;;;;5056280;28;20157;-49
2023/10/21 04:52:30;;;;;;;30.65;17.10;;;10.10;99.90;;;;;;5058809;28;20045;-49
2023/10/21 04:54:55;;;;;;;32.20;16.98;;;10.10;99.90;;;;;;5059167;28;20173;-48
2023/10/21 04:57:21;;;;;;;31.98;16.92;;;10.30;99.90;;;;;;5057810;28;20406;-50
2023/10/21 04:59:47;;;;;;;26.45;15.20;;;10.20;99.90;;;;;;5058048;28;20033;-51
2023/10/21 05:02:13;;;;;;;30.45;16.75;;;10.30;99.90;;;;;;5057842;28;20062;-50
2023/10/21 05:04:39;;;;;;;26.63;15.95;;;10.30;99.90;;;;;;5057474;28;20392;-47
2023/10/21 05:07:05;;;;;;;29.23;16.00;;;10.20;99.90;;;;;;5058692;28;20044;-47
2023/10/21 05:09:31;;;;;;;22.92;15.88;;;10.30;99.90;;;;;;5055405;28;20086;-47
2023/10/21 05:11:57;;;;;;;23.33;15.00;;;10.40;99.90;;;;;;5058612;28;20049;-48
2023/10/21 05:14:23;;;;;;;26.90;16.02;;;10.40;99.90;;;;;;5057071;28;20040;-47
2023/10/21 05:16:48;;;;;;;28.83;16.35;;;10.50;99.90;;;;;;5058654;28;20604;-47
2023/10/21 05:19:14;;;;;;;26.42;15.10;;;10.40;99.90;;;;;;5057759;28;20041;-47
2023/10/21 05:21:40;;;;;;;25.02;15.23;;;10.50;99.90;;;;;;5058078;28;20441;-47
2023/10/21 05:24:06;;;;;;;26.95;15.90;;;10.60;99.90;;;;;;5067553;28;20343;-47
2023/10/21 05:26:31;;;;;;;26.08;15.20;;;10.50;99.90;;;;;;5055846;28;20148;-46
2023/10/21 05:29:00;;;;;;;27.33;15.68;;;10.70;99.90;;;;;;5056220;28;20048;-47
2023/10/21 05:31:26;;;;;;;29.88;15.43;;;10.60;99.90;;;;;;5056828;28;20206;-47
2023/10/21 05:33:51;;;;;;;23.75;14.50;;;10.70;99.90;;;;;;5069874;28;20052;-48
2023/10/21 05:36:18;;;;;;;21.95;14.30;;;;;;;;;;5058024;28;20394;-47
2023/10/21 05:38:43;;;;;;;21.27;13.88;;;11.10;99.90;;;;;;5058145;28;20051;-49
2023/10/21 05:41:09;;;;;;;24.27;14.45;;;11.00;99.90;;;;;;5053382;28;20037;-48
2023/10/21 05:43:34;;;;;;;25.17;14.35;;;11.10;99.90;;;;;;5058753;28;20496;-48
2023/10/21 05:46:03;;;;;;;21.80;14.70;;;11.00;99.90;;;;;;5053777;28;20128;-51
2023/10/21 05:48:29;;;;;;;23.00;13.80;;;11.00;99.90;;;;;;5052483;28;20044;-48
2023/10/21 05:51:02;;;;;;;21.88;14.35;;;11.00;99.90;;;;;;5057474;28;20395;-48
2023/10/21 05:53:28;;;;;;;23.48;14.52;;;11.00;99.90;;;;;;5060588;28;20052;-47
2023/10/21 05:55:55;;;;;;;20.48;12.55;;;11.10;99.90;;;;;;5055600;28;20533;-49
2023/10/21 05:58:21;;;;;;;18.53;13.17;;;11.20;99.90;;;;;;5058204;28;20051;-47
2023/10/21 06:00:47;;;;;;;21.13;12.98;;;11.20;99.90;;;;;;5060783;28;20052;-48
2023/10/21 06:03:13;;;;;;;17.42;13.07;;;11.20;99.90;;;;;;5058302;28;20390;-50
2023/10/21 06:05:39;;;;;;;20.40;13.15;;;11.40;99.90;;;;;;5061254;28;20453;-48
2023/10/21 06:08:05;;;;;;;16.25;12.48;;;11.30;99.90;;;;;;5065488;28;20036;-50
2023/10/21 06:10:30;;;;;;;20.20;13.98;;;11.50;99.90;;;;;;5061485;28;20088;-47
2023/10/21 06:12:56;;;;;;;19.08;13.80;;;11.40;99.90;;;;;;5062859;28;20406;-47
2023/10/21 06:15:22;;;;;;;16.20;13.02;;;11.40;99.90;;;;;;5059363;28;20040;-50
2023/10/21 06:17:47;;;;;;;20.33;14.63;;;11.50;99.90;;;;;;5059907;28;20407;-50
2023/10/21 06:20:13;;;;;;;22.80;14.70;;;11.60;99.90;;;;;;5053454;28;20434;-47
2023/10/21 06:22:39;;;;;;;19.08;14.00;;;11.50;99.90;;;;;;5054125;28;20044;-48
2023/10/21 06:25:06;;;;;;;22.27;14.93;;;11.70;99.90;;;;;;5064342;28;20116;-50
2023/10/21 06:27:32;;;;;;;19.40;13.95;;;11.70;99.90;;;;;;5060508;28;20055;-48
2023/10/21 06:29:58;;;;;;;20.30;14.90;;;11.80;99.90;;;;;;5060293;28;20119;-47
2023/10/21 06:32:23;;;;;;;21.40;15.13;;;11.70;99.90;;;;;;5061124;28;20040;-48
2023/10/21 06:34:50;;;;;;;20.50;14.65;;;11.70;99.90;;;;;;5060350;28;20037;-48
2023/10/21 06:37:15;;;;;;;21.13;14.50;;;11.80;99.90;;;;;;5062585;28;20052;-49
2023/10/21 06:39:41;;;;;;;23.70;15.00;;;11.80;99.90;;;;;;5060180;28;20029;-49
2023/10/21 06:42:07;;;;;;;21.13;14.38;;;11.90;99.90;;;;;;5053745;28;20101;-47
2023/10/21 06:44:35;;;;;;;20.27;15.55;;;11.90;99.90;;;;;;5060472;28;20110;-47
2023/10/21 06:47:01;;;;;;;21.10;15.07;;;11.90;99.90;;;;;;5059228;28;20506;-47
2023/10/21 06:49:27;;;;;;;22.00;14.93;;;11.90;99.90;;;;;;5058173;28;20044;-47
2023/10/21 06:51:55;;;;;;;20.45;15.20;;;11.90;99.90;;;;;;5059188;28;20040;-47
2023/10/21 06:54:20;;;;;;;;;;;12.10;99.90;;;;;;5060270;28;20059;-48
2023/10/21 06:56:46;;;;;;;27.83;15.82;;;12.10;99.90;;;;;;5060790;28;20266;-48
2023/10/21 06:59:13;;;;;;;24.35;16.08;;;12.10;99.90;;;;;;5059337;28;20040;-47
2023/10/21 07:01:39;;;;;;;25.70;16.17;;;12.00;99.90;;;;;;5060421;28;20051;-48
2023/10/21 07:04:05;;;;;;;27.75;17.50;;;12.10;99.90;;;;;;5061010;28;20390;-49
2023/10/21 07:06:31;;;;;;;21.35;15.00;;;12.20;99.90;;;;;;5066927;28;20048;-48
2023/10/21 07:08:56;;;;;;;30.95;17.88;;;12.20;99.90;;;;;;5064427;28;20032;-50
2023/10/21 07:11:23;;;;;;;23.67;16.83;;;12.10;99.90;;;;;;5059582;28;20045;-51
2023/10/21 07:13:49;;;;;;;23.98;16.23;;;12.50;99.90;;;;;;5056143;28;20523;-47
2023/10/21 07:16:15;;;;;;;24.85;15.85;;;12.30;99.90;;;;;;5059783;28;20040;-49
2023/10/21 07:18:40;;;;;;;20.50;14.88;;;12.20;99.90;;;;;;5058235;28;20033;-47
2023/10/21 07:21:08;;;;;;;21.33;14.93;;;12.20;99.90;;;;;;5057228;28;20441;-49
2023/10/21 07:23:35;;;;;;;28.33;17.38;;;12.30;99.90;;;;;;5067060;28;20036;-47
2023/10/21 07:26:02;;;;;;;23.65;16.02;;;12.30;99.90;;;;;;5061327;28;20057;-47
2023/10/21 07:28:28;;;;;;;24.73;16.58;;;12.60;99.90;;;;;;5060874;28;20505;-49
2023/10/21 07:30:54;;;;;;;23.77;16.83;;;12.40;99.90;;;;;;5060021;28;20040;-48
2023/10/21 07:33:20;;;;;;;21.55;16.17;;;12.50;99.90;;;;;;5060934;28;20149;-47
2023/10/21 07:35:53;;;;;;;23.65;14.93;;;12.70;99.90;;;;;;5059966;28;20094;-47
2023/10/21 07:38:19;;;;;;;20.52;14.82;;;12.60;99.90;;;;;;5058591;28;20048;-47
2023/10/21 07:40:46;;;;;;;22.60;14.15;;;;;;;;;;5062714;28;20064;-47
2023/10/21 07:43:11;;;;;;;21.33;14.88;;;12.80;99.90;;;;;;5061221;28;20040;-46
2023/10/21 07:45:42;;;;;;;22.02;14.82;;;12.90;99.90;;;;;;5064265;28;20132;-49
2023/10/21 07:48:08;;;;;;;20.00;15.00;;;12.90;99.90;;;;;;5056871;28;20041;-48
2023/10/21 07:50:34;;;;;;;19.25;13.13;;;13.10;99.90;;;;;;5061671;28;20082;-47
2023/10/21 07:52:59;;;;;;;17.90;12.82;;;13.00;99.90;;;;;;5066554;28;20044;-48
2023/10/21 07:55:25;;;;;;;18.85;12.95;;;12.90;99.90;;;;;;5061797;28;20044;-49
2023/10/21 07:57:51;;;;;;;17.23;12.80;;;12.90;99.90;;;;;;5063093;28;20041;-47
2023/10/21 08:00:17;;;;;;;16.23;11.07;;;13.00;99.90;;;;;;5055496;28;20045;-50
2023/10/21 08:02:43;;;;;;;16.77;12.18;;;13.20;99.90;;;;;;5064102;28;20070;-48
2023/10/21 08:05:09;;;;;;;17.27;12.85;;;13.20;99.90;;;;;;5065623;28;20044;-47
2023/10/21 08:07:35;;;;;;;15.80;10.80;;;13.60;99.90;;;;;;5071319;28;20040;-47
2023/10/21 08:10:04;;;;;;;15.63;10.15;;;13.50;99.90;;;;;;5063871;28;20040;-47
2023/10/21 08:12:32;;;;;;;12.48;10.10;;;13.90;99.90;;;;;;5058065;28;20134;-47
2023/10/21 08:14:58;;;;;;;13.55;9.90;;;;;;;;;;5060730;28;20098;-47
2023/10/21 08:17:24;;;;;;;12.35;9.55;;;;;;;;;;5056223;28;20539;-47
2023/10/21 08:19:50;;;;;;;13.73;8.75;;;;;;;;;;5056125;28;20037;-47
2023/10/21 08:22:16;;;;;;;9.48;8.30;;;;;;;;;;5058640;28;20082;-48
2023/10/21 08:24:42;;;;;;;12.23;7.63;;;13.90;99.90;;;;;;5056166;28;20095;-48
2023/10/21 08:27:08;;;;;;;9.65;7.60;;;13.90;99.90;;;;;;5063665;28;20514;-47
2023/10/21 08:29:33;;;;;;;11.90;6.72;;;14.00;99.90;;;;;;5057370;28;20048;-51
2023/10/21 08:31:59;;;;;;;8.27;6.80;;;13.90;99.90;;;;;;5060591;28;20049;-47
2023/10/21 08:34:25;;;;;;;8.95;6.28;;;14.10;99.90;;;;;;5062473;28;20032;-48
2023/10/21 08:36:50;;;;;;;10.70;6.97;;;14.00;99.90;;;;;;5053254;28;20056;-49
2023/10/21 08:39:16;;;;;;;8.18;5.93;;;14.20;99.90;;;;;;5057579;28;20040;-50
2023/10/21 08:41:42;;;;;;;7.40;6.03;;;14.10;99.90;;;;;;5070987;28;20036;-50
2023/10/21 08:44:10;;;;;;;8.52;5.53;;;14.10;99.90;;;;;;5066214;28;20171;-48
2023/10/21 08:46:37;;;;;;;12.05;6.97;;;14.20;99.90;;;;;;5065129;28;20060;-50
2023/10/21 08:49:03;;;;;;;9.40;6.00;;;14.10;99.90;;;;;;5070747;28;20098;-50
2023/10/21 08:51:30;;;;;;;8.55;5.75;;;14.10;99.90;;;;;;5071388;28;20123;-50
2023/10/21 08:53:59;;;;;;;9.13;5.30;;;14.20;99.90;;;;;;5071285;28;20044;-48
2023/10/21 08:56:27;;;;;;;8.50;5.00;;;14.30;99.90;;;;;;5070486;28;20090;-48
2023/10/21 08:58:54;;;;;;;;;;;14.30;99.90;;;;;;5069845;28;20119;-49
2023/10/21 09:01:20;;;;;;;8.25;5.05;;;14.30;99.90;;;;;;5070297;28;20245;-47
2023/10/21 09:03:46;;;;;;;7.07;4.78;;;14.20;99.90;;;;;;5065843;28;20123;-48
2023/10/21 09:06:12;;;;;;;7.88;4.65;;;14.30;99.90;;;;;;5051176;28;20088;-48
2023/10/21 09:08:41;;;;;;;7.93;4.57;;;14.40;99.90;;;;;;5051507;28;20098;-49
2023/10/21 09:11:13;;;;;;;6.70;4.03;;;14.40;99.90;;;;;;5053906;28;20044;-50
2023/10/21 09:13:40;;;;;;;5.53;3.75;;;14.40;99.90;;;;;;5050747;28;20103;-49
2023/10/21 09:16:34;;;;;;;5.72;3.80;;;14.40;99.90;;;;;;5050782;28;20044;-49
2023/10/21 09:19:06;;;;;;;7.63;4.43;;;14.50;99.90;;;;;;5070173;28;20041;-49
2023/10/21 09:21:38;;;;;;;6.38;3.70;;;14.50;99.90;;;;;;5058806;28;20048;-47
2023/10/21 09:24:21;;;;;;;6.63;3.10;;;14.50;99.90;;;;;;5050721;28;20053;-47
2023/10/21 09:26:48;;;;;;;6.95;2.80;;;14.50;99.90;;;;;;5060368;28;20433;-47
2023/10/21 09:29:18;;;;;;;3.72;3.10;;;14.40;99.90;;;;;;5070129;28;20098;-47
2023/10/21 09:31:51;;;;;;;5.80;3.03;;;14.30;99.90;;;;;;5073219;28;20032;-47
2023/10/21 09:34:29;;;;;;;4.88;2.72;;;14.40;99.90;;;;;;5069132;28;20511;-46
2023/10/21 09:36:56;;;;;;;;;;;14.30;99.90;;;;;;5060237;28;20113;-47
2023/10/21 09:39:22;;;;;;;5.15;2.85;;;14.30;99.90;;;;;;5064288;28;19920;-47
2023/10/21 09:41:49;;;;;;;5.35;2.50;;;14.30;99.90;;;;;;5067913;28;20122;-46
2023/10/21 09:44:16;;;;;;;4.65;2.92;;;14.30;99.90;;;;;;5065551;28;20036;-50
2023/10/21 09:46:46;;;;;;;4.80;2.42;;;14.20;99.90;;;;;;5066369;28;20049;-47
2023/10/21 09:49:13;;;;;;;4.78;2.50;;;14.20;99.90;;;;;;5059524;28;20476;-48
2023/10/21 09:51:56;;;;;;;3.67;2.13;;;14.10;99.90;;;;;;5070292;28;20044;-50
2023/10/21 09:54:42;;;;;;;2.85;1.60;;;14.10;99.90;;;;;;5067887;28;20079;-48
2023/10/21 09:57:12;;;;;;;3.95;1.42;;;14.10;99.90;;;;;;5054211;28;20045;-47
2023/10/21 09:59:44;;;;;;;4.38;1.58;;;13.90;99.90;;;;;;5054673;28;20368;-47
2023/10/21 10:02:11;;;;;;;3.95;1.20;;;14.10;99.90;;;;;;5065327;28;20069;-48
2023/10/21 10:04:38;;;;;;;2.08;0.80;;;14.20;99.90;;;;;;5057517;28;20113;-48
2023/10/21 10:07:08;;;;;;;1.33;0.98;;;14.60;99.90;;;;;;5061598;28;20146;-46
2023/10/21 10:09:36;;;;;;;2.90;1.00;;;14.80;99.90;;;;;;5072130;28;20059;-48
2023/10/21 10:12:09;;;;;;;1.75;0.98;;;15.10;99.90;;;;;;5069491;28;20105;-49
2023/10/21 10:14:34;;;;;;;2.10;0.90;;;15.10;99.90;;;;;;5060323;28;20053;-49
2023/10/21 10:17:00;;;;;;;5.20;0.90;;;15.10;99.90;;;;;;5062506;28;20041;-48
2023/10/21 10:19:42;;;;;;;2.88;1.20;;;15.10;99.90;;;;;;5072018;28;20041;-48
2023/10/21 10:22:28;;;;;;;1.98;0.95;;;15.20;99.90;;;;;;5062722;28;20364;-47
2023/10/21 10:25:23;;;;;;;1.55;0.90;;;15.30;99.90;;;;;;5063494;28;20122;-47
2023/10/21 10:27:56;;;;;;;2.70;0.70;;;15.10;99.90;;;;;;5064493;28;20040;-47
2023/10/21 10:30:22;;;;;;;1.85;0.80;;;15.00;99.90;;;;;;5068252;28;20098;-47
2023/10/21 10:32:52;;;;;;;4.20;1.10;;;15.10;99.90;;;;;;5059644;28;20069;-47
2023/10/21 10:35:32;;;;;;;1.35;0.80;;;15.10;99.90;;;;;;5064168;28;20048;-46
2023/10/21 10:38:01;;;;;;;2.08;0.70;;;15.10;99.90;;;;;;5062935;28;20044;-47
2023/10/21 10:40:35;;;;;;;1.02;0.60;;;15.10;99.90;;;;;;5067949;28;20136;-48
2023/10/21 10:43:03;;;;;;;2.13;0.70;;;14.90;99.90;;;;;;5064843;28;20052;-50
2023/10/21 10:45:31;;;;;;;0.80;0.60;;;15.00;99.90;;;;;;5068318;28;20126;-47
2023/10/21 10:48:07;;;;;;;2.90;0.98;;;15.10;99.90;;;;;;5063515;28;20082;-48
2023/10/21 10:50:37;;;;;;;1.90;0.70;;;15.30;99.90;;;;;;5067155;28;20487;-46
2023/10/21 10:53:16;;;;;;;0.60;0.60;;;15.30;99.90;;;;;;5062599;28;20037;-46
2023/10/21 10:55:54;;;;;;;1.45;0.75;;;15.40;99.90;;;;;;5063836;28;20126;-48
2023/10/21 10:58:20;;;;;;;0.73;0.60;;;15.40;99.90;;;;;;5060881;28;20380;-47
2023/10/21 11:00:51;;;;;;;1.92;0.60;;;15.50;99.90;;;;;;5066469;28;20040;-47
2023/10/21 11:03:27;;;;;;;2.80;0.82;;;15.50;99.90;;;;;;5061031;28;20072;-46
2023/10/21 11:05:57;;;;;;;1.95;0.70;;;15.40;99.90;;;;;;5058315;28;20340;-46
2023/10/21 11:08:24;;;;;;;1.15;0.98;;;15.40;99.90;;;;;;5068578;28;20041;-47
2023/10/21 11:10:53;;;;;;;3.58;1.00;;;15.40;99.90;;;;;;5053011;28;20142;-46
2023/10/21 11:13:20;;;;;;;1.48;0.85;;;15.60;99.90;;;;;;5054525;28;20491;-50
2023/10/21 11:15:51;;;;;;;1.83;0.98;;;15.70;99.90;;;;;;5053848;28;20044;-48
2023/10/21 11:18:18;;;;;;;2.97;0.88;;;16.00;99.90;;;;;;5065841;28;20127;-48
2023/10/21 11:20:52;;;;;;;1.60;0.65;;;16.20;99.90;;;;;;5060034;28;20041;-47
2023/10/21 11:23:19;;;;;;;1.10;0.70;;;16.00;99.90;;;;;;5056075;28;20044;-49
2023/10/21 11:25:50;;;;;;;1.35;0.60;;;15.60;99.90;;;;;;5063612;28;20416;-47
2023/10/21 11:28:16;;;;;;;1.00;0.60;;;15.20;99.90;;;;;;5060005;28;20036;-47
2023/10/21 11:30:44;;;;;;;1.08;0.60;;;14.90;99.90;;;;;;5052944;28;20037;-46
2023/10/21 11:33:10;;;;;;;0.98;0.68;;;14.90;99.90;;;;;;5063933;28;20094;-49
2023/10/21 11:35:41;;;;;;;1.40;0.55;;;14.90;99.90;;;;;;5066431;28;20083;-48
2023/10/21 11:38:07;;;;;;;1.73;0.70;;;14.80;99.90;;;;;;5066949;28;20493;-47
2023/10/21 11:40:36;;;;;;;1.80;0.63;;;14.80;99.90;;;;;;5062116;28;20048;-47
2023/10/21 11:43:06;;;;;;;2.60;0.65;;;14.80;99.90;;;;;;5070530;28;20072;-47
2023/10/21 11:45:32;;;;;;;2.33;0.70;;;14.80;99.90;;;;;;5065414;28;20326;-49
2023/10/21 11:48:01;;;;;;;2.92;1.10;;;14.60;99.90;;;;;;5069414;28;20400;-50
2023/10/21 11:50:34;;;;;;;3.08;0.80;;;14.70;99.90;;;;;;5059867;28;20048;-48
2023/10/21 11:53:03;;;;;;;1.40;0.65;;;14.70;99.90;;;;;;5064326;28;20115;-47
2023/10/21 12:02:17;;;;;;;1.38;0.88;;;15.00;99.90;;;;;;5065231;28;20044;-49
2023/10/21 12:20:32;;;;;;;2.47;0.80;;;15.90;99.90;;;;;;5066409;28;19927;-47
2023/10/21 12:38:40;;;;;;;4.18;0.80;;;16.10;99.90;;;;;;5064223;28;20053;-47
2023/10/21 12:43:39;;;;;;;12.02;1.33;;;16.20;99.90;;;;;;5051129;28;20496;-50
2023/10/21 12:46:17;;;;;;;2.72;0.73;;;16.20;99.90;;;;;;5055858;28;20176;-48
2023/10/21 12:48:45;;;;;;;1.75;0.70;;;16.10;99.90;;;;;;5061827;28;20475;-47
2023/10/21 12:51:14;;;;;;;4.38;0.90;;;16.10;99.90;;;;;;5064641;28;20041;-46
2023/10/21 12:53:40;;;;;;;3.10;0.73;;;16.20;99.90;;;;;;5060505;28;20045;-49
2023/10/21 12:56:06;;;;;;;3.08;0.95;;;16.10;99.90;;;;;;5067541;28;20129;-46
2023/10/21 12:58:32;;;;;;;3.05;1.00;;;16.30;99.90;;;;;;5059994;28;20041;-47
2023/10/21 13:00:58;;;;;;;2.10;0.85;;;16.40;99.90;;;;;;5060681;28;20080;-49
2023/10/21 13:03:24;;;;;;;2.30;0.80;;;16.40;99.90;;;;;;5054648;28;20083;-46
2023/10/21 13:05:52;;;;;;;2.28;0.70;;;16.40;99.90;;;;;;5050804;28;20194;-48
2023/10/21 13:08:18;;;;;;;3.70;0.70;;;16.30;99.90;;;;;;5059266;28;20182;-46
2023/10/21 13:10:44;;;;;;;4.15;0.82;;;16.20;99.90;;;;;;5050810;28;20123;-50
2023/10/21 13:13:12;;;;;;;5.75;0.93;;;16.20;99.90;;;;;;5063624;28;20041;-46
2023/10/21 13:15:38;;;;;;;4.22;1.10;;;16.30;99.90;;;;;;5061967;28;20044;-50
2023/10/21 13:18:03;;;;;;;2.47;1.00;;;16.50;99.90;;;;;;5063674;28;20345;-48
2023/10/21 13:20:30;;;;;;;3.20;1.10;;;16.50;99.90;;;;;;5052292;28;20052;-47